Big Bear Station Historical Data
 
Daily Summary for February 28, 2017 Units:  English    Metric   Both
« Previous Day
Next Day »
Daily Weekly Monthly Yearly Custom
  Current: High: Low: Average:
Temperature: 26.4 °F 29.7 °F 24.3 °F 26.8 °F
Dew Point: 22.5 °F 27.1 °F 22.2 °F 24.4 °F
Humidity: 85 % 94 % 84 % 91 %
Wind Speed: 0.0 mph 10.9 mph 0.0 mph 2.2 mph
Wind Gust: -999.0 mph -999.0 mph - -
Wind:Calm - - SW
Pressure: 30.00 in 30.00 in 29.85 in -
Precipitation: 0.00 in      
Historical Graphs
 
 
Tabular Data for February 28, 2017
Time Temperature Dew Point Pressure Wind Wind Speed Wind Gust Humidity Rainfall Rate (Hourly)
00:11 29.7 °F 27.1 °F 29.85 in SSE 5.3 mph -999.0 mph 90 % 0 in
00:27 29.5 °F 26.9 °F 29.85 in South 3.7 mph -999.0 mph 90 % 0 in
00:42 29.1 °F 26.8 °F 29.85 in ESE 3.7 mph -999.0 mph 91 % 0 in
00:59 28.6 °F 26.0 °F 29.86 in SSE 1.1 mph -999.0 mph 90 % 0 in
01:14 28.4 °F 26.1 °F 29.86 in NW 2.7 mph -999.0 mph 91 % 0 in
01:30 28.0 °F 25.7 °F 29.86 in North 4.7 mph -999.0 mph 91 % 0 in
01:46 27.7 °F 25.2 °F 29.86 in NW 10.9 mph -999.0 mph 90 % 0 in
02:01 27.9 °F 25.6 °F 29.86 in WNW 2.2 mph -999.0 mph 91 % 0 in
02:18 27.7 °F 25.4 °F 29.86 in NW 3.7 mph -999.0 mph 91 % 0 in
02:35 27.1 °F 24.3 °F 29.86 in North 2.2 mph -999.0 mph 89 % 0 in
02:51 27.1 °F 24.6 °F 29.86 in SE 2.7 mph -999.0 mph 90 % 0 in
03:06 27.0 °F 24.7 °F 29.86 in West 3.7 mph -999.0 mph 91 % 0 in
03:23 27.0 °F 24.7 °F 29.86 in NE 2.7 mph -999.0 mph 91 % 0 in
03:39 27.3 °F 25.8 °F 29.87 in SW 3.2 mph -999.0 mph 94 % 0 in
03:54 27.3 °F 25.0 °F 29.87 in SSW 2.2 mph -999.0 mph 91 % 0 in
04:09 26.8 °F 24.0 °F 29.87 in West 3.2 mph -999.0 mph 89 % 0 in
04:24 26.4 °F 24.1 °F 29.88 in NNW 1.7 mph -999.0 mph 91 % 0 in
04:41 26.4 °F 24.4 °F 29.89 in NW 3.7 mph -999.0 mph 92 % 0 in
04:59 26.4 °F 24.1 °F 29.89 in NW 3.7 mph -999.0 mph 91 % 0 in
05:14 26.2 °F 23.9 °F 29.89 in East 2.7 mph -999.0 mph 91 % 0 in
05:29 26.4 °F 24.1 °F 29.90 in SSE 2.2 mph -999.0 mph 91 % 0 in
05:44 26.4 °F 24.7 °F 29.91 in Calm   -999.0 mph 93 % 0 in
06:00 26.4 °F 24.4 °F 29.92 in Calm   -999.0 mph 92 % 0 in
06:15 25.7 °F 23.4 °F 29.93 in Calm   -999.0 mph 91 % 0 in
06:30 24.8 °F 22.5 °F 29.93 in Calm   -999.0 mph 91 % 0 in
06:46 24.3 °F 22.3 °F 29.94 in Calm   -999.0 mph 92 % 0 in
07:01 24.3 °F 22.6 °F 29.94 in Calm   -999.0 mph 93 % 0 in
07:16 24.8 °F 23.1 °F 29.95 in Calm   -999.0 mph 93 % 0 in
07:31 25.0 °F 23.3 °F 29.96 in Calm   -999.0 mph 93 % 0 in
07:46 25.5 °F 23.8 °F 29.97 in Calm   -999.0 mph 93 % 0 in
08:02 25.5 °F 22.4 °F 29.98 in Calm   -999.0 mph 88 % 0 in
08:17 26.4 °F 22.2 °F 29.99 in Calm   -999.0 mph 84 % 0 in
08:32 26.4 °F 22.5 °F 30.00 in Calm   -999.0 mph 85 % 0 in
Big Bear CA Weather
Compliments of Weather Underground - 1.25 mb